sensor_id;sensor_type;location;lat;lon;timestamp;P1;durP1;ratioP1;P2;durP2;ratioP2
53052;SDS011;38934;52.690;6.184;2024-02-15T00:01:54;29.27;;;13.98;;
53052;SDS011;38934;52.690;6.184;2024-02-15T00:04:19;26.35;;;14.52;;
53052;SDS011;38934;52.690;6.184;2024-02-15T00:06:45;30.38;;;15.07;;
53052;SDS011;38934;52.690;6.184;2024-02-15T00:09:10;28.98;;;13.55;;
53052;SDS011;38934;52.690;6.184;2024-02-15T00:11:36;29.95;;;14.10;;
53052;SDS011;38934;52.690;6.184;2024-02-15T00:14:04;31.23;;;15.02;;
53052;SDS011;38934;52.690;6.184;2024-02-15T00:16:30;33.30;;;15.57;;
53052;SDS011;38934;52.690;6.184;2024-02-15T00:18:55;33.80;;;16.10;;
53052;SDS011;38934;52.690;6.184;2024-02-15T00:21:21;35.20;;;16.80;;
53052;SDS011;38934;52.690;6.184;2024-02-15T00:23:50;35.55;;;16.13;;
53052;SDS011;38934;52.690;6.184;2024-02-15T00:26:16;36.70;;;16.73;;
53052;SDS011;38934;52.690;6.184;2024-02-15T00:28:41;37.80;;;15.93;;
53052;SDS011;38934;52.690;6.184;2024-02-15T00:31:07;37.35;;;16.65;;
53052;SDS011;38934;52.690;6.184;2024-02-15T00:33:33;37.63;;;17.77;;
53052;SDS011;38934;52.690;6.184;2024-02-15T00:36:00;36.22;;;17.38;;
53052;SDS011;38934;52.690;6.184;2024-02-15T00:38:26;37.30;;;16.98;;
53052;SDS011;38934;52.690;6.184;2024-02-15T00:40:52;38.85;;;18.05;;
53052;SDS011;38934;52.690;6.184;2024-02-15T00:43:18;46.95;;;19.10;;
53052;SDS011;38934;52.690;6.184;2024-02-15T00:45:44;41.13;;;18.38;;
53052;SDS011;38934;52.690;6.184;2024-02-15T00:48:10;47.50;;;19.52;;
53052;SDS011;38934;52.690;6.184;2024-02-15T00:50:36;49.55;;;20.08;;
53052;SDS011;38934;52.690;6.184;2024-02-15T00:53:02;52.95;;;20.17;;
53052;SDS011;38934;52.690;6.184;2024-02-15T00:55:27;41.00;;;17.67;;
53052;SDS011;38934;52.690;6.184;2024-02-15T00:57:53;45.42;;;18.65;;
53052;SDS011;38934;52.690;6.184;2024-02-15T01:00:19;39.90;;;18.13;;
53052;SDS011;38934;52.690;6.184;2024-02-15T01:02:45;41.75;;;18.17;;
53052;SDS011;38934;52.690;6.184;2024-02-15T01:05:11;45.63;;;18.75;;
53052;SDS011;38934;52.690;6.184;2024-02-15T01:07:40;42.55;;;17.95;;
53052;SDS011;38934;52.690;6.184;2024-02-15T01:10:06;41.47;;;16.45;;
53052;SDS011;38934;52.690;6.184;2024-02-15T01:12:32;36.42;;;16.58;;
53052;SDS011;38934;52.690;6.184;2024-02-15T01:14:58;34.22;;;16.17;;
53052;SDS011;38934;52.690;6.184;2024-02-15T01:17:24;33.53;;;15.18;;
53052;SDS011;38934;52.690;6.184;2024-02-15T01:19:50;39.25;;;15.35;;
53052;SDS011;38934;52.690;6.184;2024-02-15T01:22:15;39.33;;;15.65;;
53052;SDS011;38934;52.690;6.184;2024-02-15T01:24:41;34.67;;;14.80;;
53052;SDS011;38934;52.690;6.184;2024-02-15T01:27:07;31.90;;;14.60;;
53052;SDS011;38934;52.690;6.184;2024-02-15T01:29:34;31.60;;;14.75;;
53052;SDS011;38934;52.690;6.184;2024-02-15T01:32:00;29.35;;;13.75;;
53052;SDS011;38934;52.690;6.184;2024-02-15T01:34:27;30.23;;;13.68;;
53052;SDS011;38934;52.690;6.184;2024-02-15T01:36:53;34.00;;;14.20;;
53052;SDS011;38934;52.690;6.184;2024-02-15T01:39:19;29.35;;;14.18;;
53052;SDS011;38934;52.690;6.184;2024-02-15T01:41:48;31.58;;;13.90;;
53052;SDS011;38934;52.690;6.184;2024-02-15T01:44:20;31.42;;;13.57;;
53052;SDS011;38934;52.690;6.184;2024-02-15T01:46:46;27.23;;;13.30;;
53052;SDS011;38934;52.690;6.184;2024-02-15T01:49:13;29.70;;;13.15;;
53052;SDS011;38934;52.690;6.184;2024-02-15T01:51:40;29.40;;;13.52;;
53052;SDS011;38934;52.690;6.184;2024-02-15T01:54:08;25.30;;;13.55;;
53052;SDS011;38934;52.690;6.184;2024-02-15T01:56:35;33.47;;;14.93;;
53052;SDS011;38934;52.690;6.184;2024-02-15T01:59:01;30.73;;;14.82;;
53052;SDS011;38934;52.690;6.184;2024-02-15T02:01:28;32.42;;;14.52;;
53052;SDS011;38934;52.690;6.184;2024-02-15T02:03:57;28.63;;;13.90;;
53052;SDS011;38934;52.690;6.184;2024-02-15T02:06:24;33.42;;;13.57;;
53052;SDS011;38934;52.690;6.184;2024-02-15T02:08:49;29.65;;;13.68;;
53052;SDS011;38934;52.690;6.184;2024-02-15T02:11:15;28.70;;;13.55;;
53052;SDS011;38934;52.690;6.184;2024-02-15T02:13:41;29.77;;;12.50;;
53052;SDS011;38934;52.690;6.184;2024-02-15T02:18:56;34.08;;;13.77;;
53052;SDS011;38934;52.690;6.184;2024-02-15T02:21:23;30.20;;;13.27;;
53052;SDS011;38934;52.690;6.184;2024-02-15T02:23:57;33.53;;;14.15;;
53052;SDS011;38934;52.690;6.184;2024-02-15T02:26:23;37.92;;;15.48;;
53052;SDS011;38934;52.690;6.184;2024-02-15T02:28:50;36.70;;;16.20;;
53052;SDS011;38934;52.690;6.184;2024-02-15T02:31:18;38.78;;;16.17;;
53052;SDS011;38934;52.690;6.184;2024-02-15T02:33:52;35.42;;;16.00;;
53052;SDS011;38934;52.690;6.184;2024-02-15T02:36:20;39.60;;;16.83;;
53052;SDS011;38934;52.690;6.184;2024-02-15T02:38:46;40.15;;;17.02;;
53052;SDS011;38934;52.690;6.184;2024-02-15T02:41:15;37.05;;;16.98;;
53052;SDS011;38934;52.690;6.184;2024-02-15T02:43:41;42.78;;;18.02;;
53052;SDS011;38934;52.690;6.184;2024-02-15T02:46:09;41.90;;;17.50;;
53052;SDS011;38934;52.690;6.184;2024-02-15T02:48:35;35.80;;;17.02;;
53052;SDS011;38934;52.690;6.184;2024-02-15T02:51:01;41.05;;;17.42;;
53052;SDS011;38934;52.690;6.184;2024-02-15T02:53:27;35.22;;;17.58;;
53052;SDS011;38934;52.690;6.184;2024-02-15T02:55:53;37.35;;;16.70;;
53052;SDS011;38934;52.690;6.184;2024-02-15T02:58:21;36.67;;;16.42;;
53052;SDS011;38934;52.690;6.184;2024-02-15T03:00:48;35.58;;;17.98;;
53052;SDS011;38934;52.690;6.184;2024-02-15T03:03:17;35.80;;;16.65;;
53052;SDS011;38934;52.690;6.184;2024-02-15T03:05:44;33.13;;;16.63;;
53052;SDS011;38934;52.690;6.184;2024-02-15T03:08:11;35.47;;;16.63;;
53052;SDS011;38934;52.690;6.184;2024-02-15T03:10:38;36.00;;;16.85;;
53052;SDS011;38934;52.690;6.184;2024-02-15T03:13:04;32.65;;;16.30;;
53052;SDS011;38934;52.690;6.184;2024-02-15T03:15:30;35.55;;;16.67;;
53052;SDS011;38934;52.690;6.184;2024-02-15T03:17:58;33.75;;;16.35;;
53052;SDS011;38934;52.690;6.184;2024-02-15T03:20:23;40.50;;;17.25;;
53052;SDS011;38934;52.690;6.184;2024-02-15T03:25:24;37.97;;;18.17;;
53052;SDS011;38934;52.690;6.184;2024-02-15T03:27:51;36.50;;;16.85;;
53052;SDS011;38934;52.690;6.184;2024-02-15T03:30:21;40.85;;;18.40;;
53052;SDS011;38934;52.690;6.184;2024-02-15T03:32:49;40.80;;;18.05;;
53052;SDS011;38934;52.690;6.184;2024-02-15T03:35:16;41.83;;;18.88;;
53052;SDS011;38934;52.690;6.184;2024-02-15T03:37:43;37.95;;;19.75;;
53052;SDS011;38934;52.690;6.184;2024-02-15T03:40:09;39.67;;;20.08;;
53052;SDS011;38934;52.690;6.184;2024-02-15T03:42:35;35.78;;;19.38;;
53052;SDS011;38934;52.690;6.184;2024-02-15T03:45:05;43.67;;;19.20;;
53052;SDS011;38934;52.690;6.184;2024-02-15T03:47:31;41.47;;;19.42;;
53052;SDS011;38934;52.690;6.184;2024-02-15T03:49:58;40.38;;;20.23;;
53052;SDS011;38934;52.690;6.184;2024-02-15T03:52:24;40.17;;;20.33;;
53052;SDS011;38934;52.690;6.184;2024-02-15T03:54:50;46.60;;;20.90;;
53052;SDS011;38934;52.690;6.184;2024-02-15T03:57:17;45.72;;;21.20;;
53052;SDS011;38934;52.690;6.184;2024-02-15T03:59:46;46.35;;;21.38;;
53052;SDS011;38934;52.690;6.184;2024-02-15T04:02:15;42.22;;;20.77;;
53052;SDS011;38934;52.690;6.184;2024-02-15T04:04:41;43.72;;;23.17;;
53052;SDS011;38934;52.690;6.184;2024-02-15T04:07:08;47.47;;;22.75;;
53052;SDS011;38934;52.690;6.184;2024-02-15T04:09:36;44.33;;;21.52;;
53052;SDS011;38934;52.690;6.184;2024-02-15T04:12:02;49.53;;;23.30;;
53052;SDS011;38934;52.690;6.184;2024-02-15T04:14:28;46.70;;;23.15;;
53052;SDS011;38934;52.690;6.184;2024-02-15T04:16:53;45.75;;;22.98;;
53052;SDS011;38934;52.690;6.184;2024-02-15T04:19:19;48.35;;;23.90;;
53052;SDS011;38934;52.690;6.184;2024-02-15T04:21:45;46.72;;;24.05;;
53052;SDS011;38934;52.690;6.184;2024-02-15T04:24:12;49.65;;;25.08;;
53052;SDS011;38934;52.690;6.184;2024-02-15T04:26:38;47.88;;;25.42;;
53052;SDS011;38934;52.690;6.184;2024-02-15T04:29:04;48.40;;;25.25;;
53052;SDS011;38934;52.690;6.184;2024-02-15T04:31:29;47.60;;;25.05;;
53052;SDS011;38934;52.690;6.184;2024-02-15T04:33:56;48.35;;;24.98;;
53052;SDS011;38934;52.690;6.184;2024-02-15T04:36:23;47.80;;;25.27;;
53052;SDS011;38934;52.690;6.184;2024-02-15T04:38:50;48.55;;;24.85;;
53052;SDS011;38934;52.690;6.184;2024-02-15T04:41:17;45.78;;;25.88;;
53052;SDS011;38934;52.690;6.184;2024-02-15T04:43:47;49.70;;;25.95;;
53052;SDS011;38934;52.690;6.184;2024-02-15T04:46:13;50.80;;;27.30;;
53052;SDS011;38934;52.690;6.184;2024-02-15T04:48:39;53.90;;;26.30;;
53052;SDS011;38934;52.690;6.184;2024-02-15T04:51:07;46.65;;;24.92;;
53052;SDS011;38934;52.690;6.184;2024-02-15T04:53:32;48.35;;;24.65;;
53052;SDS011;38934;52.690;6.184;2024-02-15T04:55:58;43.10;;;25.10;;
53052;SDS011;38934;52.690;6.184;2024-02-15T04:58:26;51.15;;;25.60;;
53052;SDS011;38934;52.690;6.184;2024-02-15T05:00:54;48.17;;;24.45;;
53052;SDS011;38934;52.690;6.184;2024-02-15T05:03:24;49.03;;;25.92;;
53052;SDS011;38934;52.690;6.184;2024-02-15T05:05:49;49.38;;;25.63;;
53052;SDS011;38934;52.690;6.184;2024-02-15T05:08:15;45.03;;;24.50;;
53052;SDS011;38934;52.690;6.184;2024-02-15T05:10:41;42.45;;;24.63;;
53052;SDS011;38934;52.690;6.184;2024-02-15T05:13:06;43.83;;;24.58;;
53052;SDS011;38934;52.690;6.184;2024-02-15T05:15:33;48.92;;;24.27;;
53052;SDS011;38934;52.690;6.184;2024-02-15T05:17:58;50.15;;;24.70;;
53052;SDS011;38934;52.690;6.184;2024-02-15T05:20:26;46.92;;;25.63;;
53052;SDS011;38934;52.690;6.184;2024-02-15T05:22:52;46.90;;;24.17;;
53052;SDS011;38934;52.690;6.184;2024-02-15T05:25:19;45.28;;;24.83;;
53052;SDS011;38934;52.690;6.184;2024-02-15T05:27:48;44.65;;;23.83;;
53052;SDS011;38934;52.690;6.184;2024-02-15T05:30:14;40.97;;;23.20;;
53052;SDS011;38934;52.690;6.184;2024-02-15T05:32:40;45.38;;;24.23;;
53052;SDS011;38934;52.690;6.184;2024-02-15T05:35:10;44.38;;;23.60;;
53052;SDS011;38934;52.690;6.184;2024-02-15T05:37:37;49.08;;;25.65;;
53052;SDS011;38934;52.690;6.184;2024-02-15T05:40:03;45.65;;;25.10;;
53052;SDS011;38934;52.690;6.184;2024-02-15T05:42:29;47.03;;;24.88;;
53052;SDS011;38934;52.690;6.184;2024-02-15T05:44:55;42.60;;;24.17;;
53052;SDS011;38934;52.690;6.184;2024-02-15T05:47:39;51.70;;;24.48;;
53052;SDS011;38934;52.690;6.184;2024-02-15T05:50:05;44.05;;;23.58;;
53052;SDS011;38934;52.690;6.184;2024-02-15T05:52:32;46.22;;;22.85;;
53052;SDS011;38934;52.690;6.184;2024-02-15T05:54:57;41.67;;;22.33;;
53052;SDS011;38934;52.690;6.184;2024-02-15T05:57:23;40.53;;;22.40;;
53052;SDS011;38934;52.690;6.184;2024-02-15T05:59:48;44.53;;;23.15;;
53052;SDS011;38934;52.690;6.184;2024-02-15T06:02:14;36.45;;;22.27;;
53052;SDS011;38934;52.690;6.184;2024-02-15T06:04:40;39.42;;;20.67;;
53052;SDS011;38934;52.690;6.184;2024-02-15T06:07:06;38.90;;;21.25;;
53052;SDS011;38934;52.690;6.184;2024-02-15T06:09:34;43.83;;;21.55;;
53052;SDS011;38934;52.690;6.184;2024-02-15T06:12:02;38.03;;;20.33;;
53052;SDS011;38934;52.690;6.184;2024-02-15T06:14:27;36.88;;;20.05;;
53052;SDS011;38934;52.690;6.184;2024-02-15T06:16:53;39.97;;;20.17;;
53052;SDS011;38934;52.690;6.184;2024-02-15T06:19:20;39.42;;;20.17;;
53052;SDS011;38934;52.690;6.184;2024-02-15T06:21:46;36.88;;;20.17;;
53052;SDS011;38934;52.690;6.184;2024-02-15T06:24:12;32.78;;;19.02;;
53052;SDS011;38934;52.690;6.184;2024-02-15T06:26:39;32.65;;;17.98;;
53052;SDS011;38934;52.690;6.184;2024-02-15T06:29:04;33.20;;;18.75;;
53052;SDS011;38934;52.690;6.184;2024-02-15T06:31:48;36.97;;;18.63;;
53052;SDS011;38934;52.690;6.184;2024-02-15T06:34:32;32.85;;;17.75;;
53052;SDS011;38934;52.690;6.184;2024-02-15T06:37:34;35.00;;;17.33;;
53052;SDS011;38934;52.690;6.184;2024-02-15T06:40:20;34.13;;;17.00;;
53052;SDS011;38934;52.690;6.184;2024-02-15T06:42:46;31.15;;;16.98;;
53052;SDS011;38934;52.690;6.184;2024-02-15T06:45:11;34.55;;;17.45;;
53052;SDS011;38934;52.690;6.184;2024-02-15T06:47:41;29.92;;;17.35;;
53052;SDS011;38934;52.690;6.184;2024-02-15T06:50:09;33.88;;;17.00;;
53052;SDS011;38934;52.690;6.184;2024-02-15T06:52:39;33.38;;;16.88;;
53052;SDS011;38934;52.690;6.184;2024-02-15T06:55:08;29.20;;;16.95;;
53052;SDS011;38934;52.690;6.184;2024-02-15T06:57:37;30.52;;;15.98;;
53052;SDS011;38934;52.690;6.184;2024-02-15T07:00:09;30.15;;;17.40;;
53052;SDS011;38934;52.690;6.184;2024-02-15T07:02:39;32.83;;;16.98;;
53052;SDS011;38934;52.690;6.184;2024-02-15T07:05:06;30.60;;;16.90;;
53052;SDS011;38934;52.690;6.184;2024-02-15T07:07:32;29.92;;;16.83;;
53052;SDS011;38934;52.690;6.184;2024-02-15T07:09:59;31.25;;;16.30;;
53052;SDS011;38934;52.690;6.184;2024-02-15T07:12:27;29.42;;;16.20;;
53052;SDS011;38934;52.690;6.184;2024-02-15T07:14:53;29.08;;;15.95;;
53052;SDS011;38934;52.690;6.184;2024-02-15T07:17:19;30.27;;;15.80;;
53052;SDS011;38934;52.690;6.184;2024-02-15T07:19:45;31.55;;;17.02;;
53052;SDS011;38934;52.690;6.184;2024-02-15T07:22:14;31.48;;;16.75;;
53052;SDS011;38934;52.690;6.184;2024-02-15T07:24:40;28.42;;;16.27;;
53052;SDS011;38934;52.690;6.184;2024-02-15T07:27:05;29.52;;;16.23;;
53052;SDS011;38934;52.690;6.184;2024-02-15T07:29:31;28.67;;;15.57;;
53052;SDS011;38934;52.690;6.184;2024-02-15T07:31:58;31.33;;;15.98;;
53052;SDS011;38934;52.690;6.184;2024-02-15T07:34:27;30.70;;;15.55;;
53052;SDS011;38934;52.690;6.184;2024-02-15T07:36:52;30.17;;;15.55;;
53052;SDS011;38934;52.690;6.184;2024-02-15T07:39:18;29.63;;;16.02;;
53052;SDS011;38934;52.690;6.184;2024-02-15T07:41:53;28.80;;;15.93;;
53052;SDS011;38934;52.690;6.184;2024-02-15T07:44:19;27.95;;;15.18;;
53052;SDS011;38934;52.690;6.184;2024-02-15T07:46:47;24.58;;;15.23;;
53052;SDS011;38934;52.690;6.184;2024-02-15T07:49:12;25.83;;;15.02;;
53052;SDS011;38934;52.690;6.184;2024-02-15T07:51:38;29.50;;;16.27;;
53052;SDS011;38934;52.690;6.184;2024-02-15T07:54:03;23.63;;;15.07;;
53052;SDS011;38934;52.690;6.184;2024-02-15T07:56:29;29.60;;;15.23;;
53052;SDS011;38934;52.690;6.184;2024-02-15T07:58:55;27.80;;;15.55;;
53052;SDS011;38934;52.690;6.184;2024-02-15T08:01:21;22.95;;;14.73;;
53052;SDS011;38934;52.690;6.184;2024-02-15T08:03:47;27.35;;;15.23;;
53052;SDS011;38934;52.690;6.184;2024-02-15T08:06:14;28.90;;;16.00;;
53052;SDS011;38934;52.690;6.184;2024-02-15T08:08:41;25.05;;;15.02;;
53052;SDS011;38934;52.690;6.184;2024-02-15T08:11:08;25.90;;;15.35;;
53052;SDS011;38934;52.690;6.184;2024-02-15T08:13:49;26.20;;;14.95;;
53052;SDS011;38934;52.690;6.184;2024-02-15T08:16:19;24.75;;;15.68;;
53052;SDS011;38934;52.690;6.184;2024-02-15T08:18:48;23.38;;;14.75;;
53052;SDS011;38934;52.690;6.184;2024-02-15T08:21:17;29.17;;;15.18;;
53052;SDS011;38934;52.690;6.184;2024-02-15T08:23:43;25.30;;;14.75;;
53052;SDS011;38934;52.690;6.184;2024-02-15T08:26:09;25.10;;;14.93;;
53052;SDS011;38934;52.690;6.184;2024-02-15T08:28:38;27.45;;;14.95;;
53052;SDS011;38934;52.690;6.184;2024-02-15T08:31:03;25.80;;;15.02;;
53052;SDS011;38934;52.690;6.184;2024-02-15T08:33:29;25.23;;;15.50;;
53052;SDS011;38934;52.690;6.184;2024-02-15T08:35:55;26.15;;;15.38;;
53052;SDS011;38934;52.690;6.184;2024-02-15T08:38:24;24.33;;;14.27;;
53052;SDS011;38934;52.690;6.184;2024-02-15T08:40:49;25.63;;;15.13;;
53052;SDS011;38934;52.690;6.184;2024-02-15T08:43:15;25.48;;;15.68;;
53052;SDS011;38934;52.690;6.184;2024-02-15T08:45:41;23.63;;;14.82;;
53052;SDS011;38934;52.690;6.184;2024-02-15T08:48:08;23.55;;;13.43;;
53052;SDS011;38934;52.690;6.184;2024-02-15T08:50:34;23.63;;;13.88;;
53052;SDS011;38934;52.690;6.184;2024-02-15T08:53:00;28.73;;;14.85;;
53052;SDS011;38934;52.690;6.184;2024-02-15T08:55:26;21.95;;;13.63;;
53052;SDS011;38934;52.690;6.184;2024-02-15T08:57:53;23.42;;;14.15;;
53052;SDS011;38934;52.690;6.184;2024-02-15T09:00:19;22.65;;;14.18;;
53052;SDS011;38934;52.690;6.184;2024-02-15T09:02:45;23.27;;;13.93;;
53052;SDS011;38934;52.690;6.184;2024-02-15T09:05:12;24.77;;;14.63;;
53052;SDS011;38934;52.690;6.184;2024-02-15T09:07:43;23.75;;;13.68;;
53052;SDS011;38934;52.690;6.184;2024-02-15T09:10:12;24.02;;;14.07;;
53052;SDS011;38934;52.690;6.184;2024-02-15T09:12:42;23.30;;;13.70;;
53052;SDS011;38934;52.690;6.184;2024-02-15T09:15:10;23.95;;;13.90;;
53052;SDS011;38934;52.690;6.184;2024-02-15T09:17:36;25.55;;;14.57;;
53052;SDS011;38934;52.690;6.184;2024-02-15T09:22:39;24.48;;;13.10;;
53052;SDS011;38934;52.690;6.184;2024-02-15T09:25:09;19.02;;;12.25;;
53052;SDS011;38934;52.690;6.184;2024-02-15T09:27:35;19.35;;;11.90;;
53052;SDS011;38934;52.690;6.184;2024-02-15T09:30:02;20.10;;;12.43;;
53052;SDS011;38934;52.690;6.184;2024-02-15T09:32:28;21.05;;;12.07;;
53052;SDS011;38934;52.690;6.184;2024-02-15T09:34:53;19.48;;;11.50;;
53052;SDS011;38934;52.690;6.184;2024-02-15T09:37:19;17.77;;;11.50;;
53052;SDS011;38934;52.690;6.184;2024-02-15T09:39:44;20.00;;;12.27;;
53052;SDS011;38934;52.690;6.184;2024-02-15T09:42:11;20.67;;;11.55;;
53052;SDS011;38934;52.690;6.184;2024-02-15T09:44:37;19.17;;;10.75;;
53052;SDS011;38934;52.690;6.184;2024-02-15T09:47:05;15.20;;;10.65;;
53052;SDS011;38934;52.690;6.184;2024-02-15T09:49:38;17.92;;;10.85;;
53052;SDS011;38934;52.690;6.184;2024-02-15T09:54:43;14.18;;;8.90;;
53052;SDS011;38934;52.690;6.184;2024-02-15T09:57:09;12.20;;;8.35;;
53052;SDS011;38934;52.690;6.184;2024-02-15T09:59:38;12.43;;;7.70;;
53052;SDS011;38934;52.690;6.184;2024-02-15T10:02:05;11.55;;;7.28;;
53052;SDS011;38934;52.690;6.184;2024-02-15T10:04:44;10.65;;;7.57;;
53052;SDS011;38934;52.690;6.184;2024-02-15T10:07:11;11.68;;;7.40;;
53052;SDS011;38934;52.690;6.184;2024-02-15T10:09:38;11.57;;;6.68;;
53052;SDS011;38934;52.690;6.184;2024-02-15T10:12:07;10.13;;;6.47;;
53052;SDS011;38934;52.690;6.184;2024-02-15T10:14:34;8.35;;;6.25;;
53052;SDS011;38934;52.690;6.184;2024-02-15T10:17:07;7.57;;;5.90;;
53052;SDS011;38934;52.690;6.184;2024-02-15T10:19:37;8.32;;;5.97;;
53052;SDS011;38934;52.690;6.184;2024-02-15T10:22:07;8.05;;;5.70;;
53052;SDS011;38934;52.690;6.184;2024-02-15T10:24:34;7.15;;;5.63;;
53052;SDS011;38934;52.690;6.184;2024-02-15T10:27:03;7.50;;;5.82;;
53052;SDS011;38934;52.690;6.184;2024-02-15T10:29:33;8.27;;;6.60;;
53052;SDS011;38934;52.690;6.184;2024-02-15T10:32:02;9.27;;;6.47;;
53052;SDS011;38934;52.690;6.184;2024-02-15T10:34:29;9.55;;;6.50;;
53052;SDS011;38934;52.690;6.184;2024-02-15T10:37:14;11.02;;;6.38;;
53052;SDS011;38934;52.690;6.184;2024-02-15T10:40:03;8.90;;;6.70;;
53052;SDS011;38934;52.690;6.184;2024-02-15T10:42:36;9.82;;;6.28;;
53052;SDS011;38934;52.690;6.184;2024-02-15T10:45:03;7.65;;;6.03;;
53052;SDS011;38934;52.690;6.184;2024-02-15T10:47:30;8.73;;;6.45;;
53052;SDS011;38934;52.690;6.184;2024-02-15T10:49:56;9.00;;;6.57;;
53052;SDS011;38934;52.690;6.184;2024-02-15T10:52:23;9.45;;;6.35;;
53052;SDS011;38934;52.690;6.184;2024-02-15T10:54:54;10.18;;;6.32;;
53052;SDS011;38934;52.690;6.184;2024-02-15T10:57:28;7.45;;;6.00;;
53052;SDS011;38934;52.690;6.184;2024-02-15T10:59:58;8.85;;;6.30;;
53052;SDS011;38934;52.690;6.184;2024-02-15T11:02:40;7.47;;;5.82;;
53052;SDS011;38934;52.690;6.184;2024-02-15T11:05:08;8.65;;;6.10;;
53052;SDS011;38934;52.690;6.184;2024-02-15T11:07:38;6.85;;;5.70;;
53052;SDS011;38934;52.690;6.184;2024-02-15T11:10:06;6.22;;;5.35;;
53052;SDS011;38934;52.690;6.184;2024-02-15T11:12:35;7.22;;;5.57;;
53052;SDS011;38934;52.690;6.184;2024-02-15T11:15:02;8.43;;;5.60;;
53052;SDS011;38934;52.690;6.184;2024-02-15T11:20:10;5.55;;;4.65;;
53052;SDS011;38934;52.690;6.184;2024-02-15T11:22:59;6.72;;;5.13;;
53052;SDS011;38934;52.690;6.184;2024-02-15T11:25:36;7.90;;;5.55;;
53052;SDS011;38934;52.690;6.184;2024-02-15T11:30:51;8.57;;;6.65;;
53052;SDS011;38934;52.690;6.184;2024-02-15T11:33:30;9.45;;;6.72;;
53052;SDS011;38934;52.690;6.184;2024-02-15T11:36:04;9.45;;;6.82;;
53052;SDS011;38934;52.690;6.184;2024-02-15T11:38:30;9.75;;;6.78;;
53052;SDS011;38934;52.690;6.184;2024-02-15T11:46:19;10.82;;;7.43;;
53052;SDS011;38934;52.690;6.184;2024-02-15T11:48:46;12.32;;;7.65;;
53052;SDS011;38934;52.690;6.184;2024-02-15T11:51:28;15.43;;;8.00;;
53052;SDS011;38934;52.690;6.184;2024-02-15T11:59:08;14.07;;;9.43;;
53052;SDS011;38934;52.690;6.184;2024-02-15T12:01:37;13.02;;;8.52;;
53052;SDS011;38934;52.690;6.184;2024-02-15T12:04:22;11.68;;;8.93;;
53052;SDS011;38934;52.690;6.184;2024-02-15T12:07:20;14.43;;;8.32;;
53052;SDS011;38934;52.690;6.184;2024-02-15T12:10:05;13.13;;;8.85;;
53052;SDS011;38934;52.690;6.184;2024-02-15T12:12:53;12.98;;;9.00;;
53052;SDS011;38934;52.690;6.184;2024-02-15T12:15:38;10.88;;;8.43;;
53052;SDS011;38934;52.690;6.184;2024-02-15T12:18:22;15.82;;;9.38;;
53052;SDS011;38934;52.690;6.184;2024-02-15T12:21:06;11.70;;;8.50;;
53052;SDS011;38934;52.690;6.184;2024-02-15T12:23:35;13.25;;;8.60;;
53052;SDS011;38934;52.690;6.184;2024-02-15T12:26:02;15.75;;;8.75;;
53052;SDS011;38934;52.690;6.184;2024-02-15T12:28:29;16.08;;;9.02;;
53052;SDS011;38934;52.690;6.184;2024-02-15T12:30:55;12.70;;;8.35;;
53052;SDS011;38934;52.690;6.184;2024-02-15T12:33:24;11.30;;;7.93;;
53052;SDS011;38934;52.690;6.184;2024-02-15T12:35:52;13.20;;;8.40;;
53052;SDS011;38934;52.690;6.184;2024-02-15T12:38:31;12.25;;;8.85;;
53052;SDS011;38934;52.690;6.184;2024-02-15T12:40:59;14.68;;;9.45;;
53052;SDS011;38934;52.690;6.184;2024-02-15T12:43:27;14.13;;;9.13;;
53052;SDS011;38934;52.690;6.184;2024-02-15T12:45:53;15.98;;;10.00;;
53052;SDS011;38934;52.690;6.184;2024-02-15T12:48:19;14.40;;;9.90;;
53052;SDS011;38934;52.690;6.184;2024-02-15T12:50:45;13.52;;;8.90;;
53052;SDS011;38934;52.690;6.184;2024-02-15T12:53:11;13.35;;;9.18;;
53052;SDS011;38934;52.690;6.184;2024-02-15T12:55:37;16.77;;;9.43;;
53052;SDS011;38934;52.690;6.184;2024-02-15T12:58:05;14.57;;;9.63;;
53052;SDS011;38934;52.690;6.184;2024-02-15T13:00:35;15.30;;;9.52;;
53052;SDS011;38934;52.690;6.184;2024-02-15T13:03:04;15.65;;;9.63;;
53052;SDS011;38934;52.690;6.184;2024-02-15T13:05:30;13.02;;;9.18;;
53052;SDS011;38934;52.690;6.184;2024-02-15T13:07:56;20.85;;;9.63;;
53052;SDS011;38934;52.690;6.184;2024-02-15T13:10:23;14.38;;;9.15;;
53052;SDS011;38934;52.690;6.184;2024-02-15T13:12:52;12.98;;;9.57;;
53052;SDS011;38934;52.690;6.184;2024-02-15T13:15:18;14.98;;;9.90;;
53052;SDS011;38934;52.690;6.184;2024-02-15T13:17:47;14.07;;;9.13;;
53052;SDS011;38934;52.690;6.184;2024-02-15T13:20:16;18.55;;;9.73;;
53052;SDS011;38934;52.690;6.184;2024-02-15T13:22:45;16.00;;;9.20;;
53052;SDS011;38934;52.690;6.184;2024-02-15T13:25:14;17.77;;;9.32;;
53052;SDS011;38934;52.690;6.184;2024-02-15T13:27:46;15.93;;;9.82;;
53052;SDS011;38934;52.690;6.184;2024-02-15T13:30:14;15.10;;;10.00;;
53052;SDS011;38934;52.690;6.184;2024-02-15T13:32:42;19.30;;;10.00;;
53052;SDS011;38934;52.690;6.184;2024-02-15T13:35:08;15.27;;;9.80;;
53052;SDS011;38934;52.690;6.184;2024-02-15T13:37:46;16.20;;;10.23;;
53052;SDS011;38934;52.690;6.184;2024-02-15T13:40:12;18.25;;;10.45;;
53052;SDS011;38934;52.690;6.184;2024-02-15T13:42:42;16.50;;;11.15;;
53052;SDS011;38934;52.690;6.184;2024-02-15T13:45:14;16.67;;;10.80;;
53052;SDS011;38934;52.690;6.184;2024-02-15T13:47:40;17.77;;;10.75;;
53052;SDS011;38934;52.690;6.184;2024-02-15T13:50:06;19.58;;;11.75;;
53052;SDS011;38934;52.690;6.184;2024-02-15T13:52:33;18.45;;;11.27;;
53052;SDS011;38934;52.690;6.184;2024-02-15T13:54:59;16.45;;;10.90;;
53052;SDS011;38934;52.690;6.184;2024-02-15T13:57:25;17.55;;;11.27;;
53052;SDS011;38934;52.690;6.184;2024-02-15T13:59:51;20.95;;;11.45;;
53052;SDS011;38934;52.690;6.184;2024-02-15T14:02:17;18.80;;;11.25;;
53052;SDS011;38934;52.690;6.184;2024-02-15T14:04:43;19.02;;;11.75;;
53052;SDS011;38934;52.690;6.184;2024-02-15T14:07:09;18.33;;;11.10;;
53052;SDS011;38934;52.690;6.184;2024-02-15T14:09:34;20.55;;;12.23;;
53052;SDS011;38934;52.690;6.184;2024-02-15T14:12:00;22.77;;;11.88;;
53052;SDS011;38934;52.690;6.184;2024-02-15T14:14:29;17.67;;;11.13;;
53052;SDS011;38934;52.690;6.184;2024-02-15T14:16:55;21.15;;;11.88;;
53052;SDS011;38934;52.690;6.184;2024-02-15T14:19:20;17.05;;;11.40;;
53052;SDS011;38934;52.690;6.184;2024-02-15T14:21:46;21.58;;;12.57;;
53052;SDS011;38934;52.690;6.184;2024-02-15T14:24:12;19.80;;;11.27;;
53052;SDS011;38934;52.690;6.184;2024-02-15T14:26:38;17.85;;;11.77;;
53052;SDS011;38934;52.690;6.184;2024-02-15T14:29:04;19.20;;;10.95;;
53052;SDS011;38934;52.690;6.184;2024-02-15T14:31:30;15.45;;;10.40;;
53052;SDS011;38934;52.690;6.184;2024-02-15T14:34:14;19.05;;;10.55;;
53052;SDS011;38934;52.690;6.184;2024-02-15T14:36:40;19.15;;;10.27;;
53052;SDS011;38934;52.690;6.184;2024-02-15T14:39:07;21.80;;;10.55;;
53052;SDS011;38934;52.690;6.184;2024-02-15T14:41:34;15.07;;;10.40;;
53052;SDS011;38934;52.690;6.184;2024-02-15T14:44:00;15.50;;;10.18;;
53052;SDS011;38934;52.690;6.184;2024-02-15T14:46:26;16.35;;;10.25;;
53052;SDS011;38934;52.690;6.184;2024-02-15T14:48:52;14.55;;;9.05;;
53052;SDS011;38934;52.690;6.184;2024-02-15T14:51:19;15.98;;;9.95;;
53052;SDS011;38934;52.690;6.184;2024-02-15T14:53:45;13.57;;;9.20;;
53052;SDS011;38934;52.690;6.184;2024-02-15T14:56:10;15.93;;;9.55;;
53052;SDS011;38934;52.690;6.184;2024-02-15T14:58:36;19.45;;;9.48;;